createdAt,value
2022-08-09T00:02:06.688Z,95623.81
2022-08-09T00:05:02.904Z,95617.75
2022-08-09T00:08:00.023Z,95632.00
2022-08-09T00:10:47.878Z,95629.03
2022-08-09T00:13:33.772Z,95622.41
2022-08-09T00:16:26.364Z,95628.72
2022-08-09T00:19:22.877Z,95632.28
2022-08-09T00:22:09.297Z,95623.28
2022-08-09T00:24:57.161Z,95620.00
2022-08-09T00:27:43.456Z,95639.19
2022-08-09T00:30:34.235Z,95626.56
2022-08-09T00:33:20.341Z,95621.06
2022-08-09T00:36:19.929Z,95624.09
2022-08-09T00:39:05.736Z,95626.09
2022-08-09T00:44:11.477Z,95625.78
2022-08-09T00:45:14.840Z,95632.34
2022-08-09T00:48:03.371Z,95632.09
2022-08-09T00:50:52.126Z,95637.59
2022-08-09T00:53:39.825Z,95635.16
2022-08-09T00:56:25.897Z,95617.94
2022-08-09T00:59:12.266Z,95632.44
2022-08-09T01:02:06.457Z,95637.63
2022-08-09T01:05:13.923Z,95637.47
2022-08-09T01:08:49.406Z,95629.63
2022-08-09T01:11:56.174Z,95653.72
2022-08-09T01:14:52.690Z,95650.97
2022-08-09T01:17:45.289Z,95645.75
2022-08-09T01:20:43.229Z,95647.75
2022-08-09T01:24:04.873Z,95652.19
2022-08-09T01:27:08.212Z,95650.88
2022-08-09T01:29:58.204Z,95653.03
2022-08-09T01:32:46.589Z,95654.94
2022-08-09T01:35:38.999Z,95645.09
2022-08-09T01:38:30.130Z,95634.72
2022-08-09T01:41:26.343Z,95655.53
2022-08-09T01:44:16.117Z,95644.88
2022-08-09T01:47:06.296Z,95647.31
2022-08-09T01:49:58.557Z,95661.56
2022-08-09T01:52:45.185Z,95662.06
2022-08-09T01:55:32.493Z,95661.88
2022-08-09T01:58:18.904Z,95655.56
2022-08-09T02:01:11.497Z,95652.28
2022-08-09T02:04:05.534Z,95665.19
2022-08-09T02:07:15.474Z,95664.38
2022-08-09T02:10:30.471Z,95678.63
2022-08-09T02:13:17.112Z,95671.47
2022-08-09T02:16:05.081Z,95672.59
2022-08-09T02:18:52.082Z,95657.25
2022-08-09T02:21:40.711Z,95677.78
2022-08-09T02:24:30.328Z,95681.94
2022-08-09T02:27:18.670Z,95655.69
2022-08-09T02:30:06.160Z,95672.13
2022-08-09T02:32:53.880Z,95687.44
2022-08-09T02:36:02.744Z,95701.16
2022-08-09T02:38:58.870Z,95690.53
2022-08-09T02:41:48.414Z,95704.47
2022-08-09T02:44:47.916Z,95696.31
2022-08-09T02:47:57.391Z,95697.44
2022-08-09T02:50:51.895Z,95697.38
2022-08-09T02:53:59.712Z,95699.03
2022-08-09T02:56:51.085Z,95688.09
2022-08-09T02:59:40.285Z,95691.63
2022-08-09T03:02:58.313Z,95687.50
2022-08-09T03:05:46.590Z,95693.81
2022-08-09T03:08:34.684Z,95692.16
2022-08-09T03:12:06.515Z,95696.84
2022-08-09T03:14:31.756Z,95702.59
2022-08-09T03:17:26.628Z,95688.94
2022-08-09T03:20:14.417Z,95698.50
2022-08-09T03:23:14.969Z,95697.41
2022-08-09T03:26:07.094Z,95699.06
2022-08-09T03:28:55.477Z,95702.09
2022-08-09T03:31:59.502Z,95710.72
2022-08-09T03:34:48.074Z,95702.50
2022-08-09T03:37:55.528Z,95683.38
2022-08-09T03:40:40.321Z,95715.91
2022-08-09T03:43:31.517Z,95694.56
2022-08-09T03:46:18.678Z,95715.34
2022-08-09T03:49:09.076Z,95701.13
2022-08-09T03:52:00.132Z,95725.75
2022-08-09T03:54:49.775Z,95721.09
2022-08-09T03:57:44.737Z,95705.78
2022-08-09T04:00:44.537Z,95732.59
2022-08-09T04:03:45.833Z,95718.66
2022-08-09T04:06:32.641Z,95724.13
2022-08-09T04:09:48.214Z,95722.22
2022-08-09T04:12:47.680Z,95723.88
2022-08-09T04:15:52.520Z,95734.00
2022-08-09T04:18:42.728Z,95735.91
2022-08-09T04:21:31.734Z,95721.69
2022-08-09T04:24:27.573Z,95720.84
2022-08-09T04:27:13.666Z,95715.69
2022-08-09T04:30:00.403Z,95740.28
2022-08-09T04:32:48.284Z,95726.03
2022-08-09T04:35:34.461Z,95744.94
2022-08-09T04:38:21.093Z,95747.13
2022-08-09T04:41:11.815Z,95744.38
2022-08-09T04:44:07.275Z,95739.72
2022-08-09T04:46:58.909Z,95733.16
2022-08-09T04:49:55.094Z,95740.81
2022-08-09T04:52:42.217Z,95739.72
2022-08-09T04:55:28.592Z,95756.44
2022-08-09T04:58:27.564Z,95760.25
2022-08-09T05:01:16.238Z,95739.19
2022-08-09T05:04:04.851Z,95755.59
2022-08-09T05:06:50.797Z,95761.63
2022-08-09T05:09:45.439Z,95754.75
2022-08-09T05:12:36.415Z,95736.16
2022-08-09T05:15:43.105Z,95763.25
2022-08-09T05:18:38.483Z,95764.66
2022-08-09T05:21:47.165Z,95765.97
2022-08-09T05:24:38.675Z,95772.03
2022-08-09T05:27:24.571Z,95759.94
2022-08-09T05:30:12.009Z,95760.75
2022-08-09T05:33:01.851Z,95753.88
2022-08-09T05:35:50.874Z,95775.81
2022-08-09T05:38:39.133Z,95765.44
2022-08-09T05:41:25.612Z,95790.34
2022-08-09T05:44:11.474Z,95770.91
2022-08-09T05:46:57.604Z,95770.34
2022-08-09T05:50:25.456Z,95770.88
2022-08-09T05:52:53.649Z,95786.53
2022-08-09T05:55:40.101Z,95786.50
2022-08-09T05:58:26.731Z,95795.00
2022-08-09T06:01:16.025Z,95785.09
2022-08-09T06:04:05.815Z,95789.19
2022-08-09T06:06:52.134Z,95791.97
2022-08-09T06:09:54.780Z,95797.72
2022-08-09T06:12:44.596Z,95791.13
2022-08-09T06:33:40.699Z,95797.66
2022-08-09T06:36:30.022Z,95789.47
2022-08-09T06:39:16.566Z,95779.69
2022-08-09T06:42:08.853Z,95793.16
2022-08-09T06:44:58.573Z,95784.13
2022-08-09T06:47:45.306Z,95781.38
2022-08-09T11:46:57.114Z,95634.50
2022-08-09T11:50:56.053Z,95631.00
2022-08-09T11:53:28.167Z,95633.59
2022-08-09T11:56:20.974Z,95627.75
2022-08-09T11:59:30.473Z,95629.56
2022-08-09T12:02:37.510Z,95629.44
2022-08-09T12:05:42.138Z,95601.38
2022-08-09T12:08:33.010Z,95624.16
2022-08-09T12:11:22.976Z,95624.06
2022-08-09T12:14:28.784Z,95621.16
2022-08-09T12:17:27.850Z,95621.06
2022-08-09T12:20:27.705Z,95622.50
2022-08-09T12:23:13.697Z,95610.03
2022-08-09T12:26:11.235Z,95606.63
2022-08-09T12:29:12.889Z,95602.47
2022-08-09T12:32:12.553Z,95596.22
2022-08-09T12:35:04.914Z,95604.78
2022-08-09T12:37:56.915Z,95588.56
2022-08-09T12:40:51.807Z,95602.25
2022-08-09T12:44:05.674Z,95612.34
2022-08-09T12:46:49.234Z,95612.31
2022-08-09T12:49:36.980Z,95622.19
2022-08-09T12:52:42.822Z,95598.56
2022-08-09T12:56:11.478Z,95594.03
2022-08-09T12:58:42.851Z,95638.41
2022-08-09T13:01:29.451Z,95611.44
2022-08-09T13:04:37.988Z,95598.03
2022-08-09T13:07:28.748Z,95595.41
2022-08-09T13:10:34.788Z,95596.47
2022-08-09T13:14:11.890Z,95610.94
2022-08-09T13:16:44.927Z,95592.69
2022-08-09T13:20:07.365Z,95582.75
2022-08-09T13:23:01.647Z,95598.03
2022-08-09T13:25:57.333Z,95587.94
2022-08-09T13:29:06.524Z,95589.69
2022-08-09T13:32:15.991Z,95583.22
2022-08-09T13:35:04.412Z,95552.50
2022-08-09T13:37:57.778Z,95572.00
2022-08-09T13:41:50.896Z,95579.88
2022-08-09T13:43:51.030Z,95586.94
2022-08-09T13:47:16.477Z,95578.25
2022-08-09T13:49:57.124Z,95579.25
2022-08-09T13:52:47.896Z,95571.44
2022-08-09T13:55:34.001Z,95577.19
2022-08-09T13:58:23.099Z,95556.59
2022-08-09T14:01:13.496Z,95568.38
2022-08-09T14:04:23.627Z,95570.75
2022-08-09T14:07:10.385Z,95572.94
2022-08-09T14:09:56.731Z,95567.78
2022-08-09T14:12:44.294Z,95568.81
2022-08-09T14:16:10.604Z,95565.19
2022-08-09T14:18:36.971Z,95556.53
2022-08-09T14:21:24.318Z,95558.72
2022-08-09T14:24:22.303Z,95553.00
2022-08-09T14:27:20.354Z,95532.06
2022-08-09T14:30:41.378Z,95540.97
2022-08-09T14:33:14.043Z,95547.84
2022-08-09T14:36:20.916Z,95539.38
2022-08-09T14:39:08.965Z,95552.75
2022-08-09T14:41:55.315Z,95543.25
2022-08-09T14:44:48.388Z,95546.00
2022-08-09T14:47:45.290Z,95551.75
2022-08-09T14:50:37.330Z,95547.06
2022-08-09T14:53:23.900Z,95538.00
2022-08-09T14:56:09.798Z,95541.66
2022-08-09T14:59:00.573Z,95539.31
2022-08-09T15:01:47.065Z,95550.56
2022-08-09T15:04:33.488Z,95552.13
2022-08-09T15:07:19.653Z,95557.84
2022-08-09T15:10:10.841Z,95549.22
2022-08-09T15:13:03.180Z,95552.13
2022-08-09T15:15:49.927Z,95558.59
2022-08-09T15:18:37.969Z,95566.28
2022-08-09T15:21:57.534Z,95559.13
2022-08-09T15:24:31.095Z,95559.44
2022-08-09T15:27:17.127Z,95558.94
2022-08-09T15:30:56.453Z,95561.88
2022-08-09T15:33:23.318Z,95571.13
2022-08-09T15:36:18.902Z,95578.72
2022-08-09T15:39:13.702Z,95571.06
2022-08-09T15:42:01.009Z,95566.81
2022-08-09T15:44:47.154Z,95581.66
2022-08-09T15:47:51.437Z,95595.38
2022-08-09T15:50:43.719Z,95601.41
2022-08-09T15:54:04.880Z,95608.38
2022-08-09T15:56:37.419Z,95602.72
2022-08-09T15:59:23.664Z,95599.09
2022-08-09T16:02:09.840Z,95597.28
2022-08-09T16:04:59.403Z,95589.75
2022-08-09T16:07:51.096Z,95593.94
2022-08-09T16:10:56.383Z,95586.38
2022-08-09T16:14:03.275Z,95581.03
2022-08-09T16:16:49.029Z,95581.03
2022-08-09T16:19:49.355Z,95583.59
2022-08-09T16:22:48.867Z,95596.78
2022-08-09T16:25:39.534Z,95594.13
2022-08-09T16:28:26.747Z,95588.22
2022-08-09T16:31:16.066Z,95592.25
2022-08-09T16:34:04.069Z,95589.34
2022-08-09T16:36:50.793Z,95571.06
2022-08-09T16:39:48.001Z,95569.94
2022-08-09T16:42:45.270Z,95562.06
2022-08-09T16:45:32.530Z,95576.28
2022-08-09T16:48:42.030Z,95583.66
2022-08-09T16:51:24.905Z,95587.09
2022-08-09T16:54:34.224Z,95587.41
2022-08-09T16:57:16.805Z,95606.59
2022-08-09T17:00:04.638Z,95616.50
2022-08-09T17:02:50.845Z,95605.72
2022-08-09T17:06:07.079Z,95627.44
2022-08-09T17:09:03.211Z,95626.22
2022-08-09T17:11:52.538Z,95631.94
2022-08-09T17:14:39.175Z,95629.94
2022-08-09T17:17:50.597Z,95625.34
2022-08-09T17:20:46.462Z,95633.50
2022-08-09T17:24:21.328Z,95637.25
2022-08-09T17:26:41.391Z,95641.28
2022-08-09T17:29:31.378Z,95638.72
2022-08-09T17:32:20.424Z,95644.28
2022-08-09T17:35:13.310Z,95638.00
2022-08-09T17:38:02.738Z,95662.84
2022-08-09T17:41:06.398Z,95679.91
2022-08-09T17:44:42.268Z,95693.28
2022-08-09T17:46:59.124Z,95703.75
2022-08-09T17:49:54.283Z,95700.50
2022-08-09T17:52:43.999Z,95729.13
2022-08-09T17:55:49.618Z,95751.44
2022-08-09T17:58:37.527Z,95769.72
2022-08-09T18:01:24.051Z,95771.09
2022-08-09T18:04:10.148Z,95770.09
2022-08-09T18:06:59.229Z,95783.28
2022-08-09T18:09:45.444Z,95765.34
2022-08-09T18:13:43.210Z,95800.75
2022-08-09T18:16:08.784Z,95804.91
2022-08-09T18:18:55.436Z,95793.53
2022-08-09T18:21:42.173Z,95801.25
2022-08-09T18:24:28.342Z,95796.91
2022-08-09T18:27:49.195Z,95780.31
2022-08-09T18:30:41.837Z,95792.75
2022-08-09T18:33:29.704Z,95793.69
2022-08-09T18:36:25.934Z,95803.06
2022-08-09T18:39:18.856Z,95791.88
2022-08-09T18:42:08.072Z,95792.00
2022-08-09T18:44:55.187Z,95781.06
2022-08-09T18:47:41.896Z,95788.78
2022-08-09T18:50:33.806Z,95779.81
2022-08-09T18:53:22.419Z,95811.06
2022-08-09T18:56:09.394Z,95794.66
2022-08-09T18:58:56.455Z,95798.19
2022-08-09T19:01:46.353Z,95778.56
2022-08-09T19:04:34.764Z,95802.91
2022-08-09T19:07:21.251Z,95807.84
2022-08-09T19:10:17.073Z,95805.69
2022-08-09T19:13:22.539Z,95817.47
2022-08-09T19:16:20.868Z,95807.91
2022-08-09T19:19:21.508Z,95809.81
2022-08-09T19:22:12.384Z,95819.75
2022-08-09T19:25:11.679Z,95826.59
2022-08-09T19:28:12.999Z,95829.88
2022-08-09T19:30:59.934Z,95834.50
2022-08-09T19:33:45.822Z,95841.31
2022-08-09T19:36:32.797Z,95846.53
2022-08-09T19:39:21.040Z,95845.44
2022-08-09T19:42:31.050Z,95831.75
2022-08-09T19:45:17.711Z,95854.06
2022-08-09T19:48:04.155Z,95847.00
2022-08-09T19:50:54.402Z,95844.16
2022-08-09T19:53:46.990Z,95839.69
2022-08-09T19:56:35.600Z,95847.50
2022-08-09T19:59:59.595Z,95846.22
2022-08-09T20:04:17.215Z,95855.28
2022-08-09T20:05:46.913Z,95841.69
2022-08-09T20:08:36.766Z,95841.94
2022-08-09T20:11:26.824Z,95836.06
2022-08-09T20:14:15.648Z,95852.75
2022-08-09T20:17:02.468Z,95841.53
2022-08-09T20:19:54.727Z,95846.16
2022-08-09T20:22:42.914Z,95824.75
2022-08-09T20:25:38.292Z,95837.78
2022-08-09T20:28:48.231Z,95844.25
2022-08-09T20:31:51.200Z,95845.31
2022-08-09T20:34:43.892Z,95833.59
2022-08-09T20:37:37.757Z,95837.78
2022-08-09T20:40:38.445Z,95826.13
2022-08-09T20:43:27.509Z,95833.88
2022-08-09T20:46:33.246Z,95825.19
2022-08-09T20:49:21.006Z,95823.28
2022-08-09T20:52:10.737Z,95843.91
2022-08-09T20:55:01.671Z,95847.16
2022-08-09T20:58:08.081Z,95847.78
2022-08-09T21:01:14.063Z,95839.31
2022-08-09T21:05:49.038Z,95840.88
2022-08-09T21:07:13.152Z,95840.72
2022-08-09T21:10:00.278Z,95847.16
2022-08-09T21:15:54.281Z,95828.38
2022-08-09T21:20:02.225Z,95850.47
2022-08-09T21:21:52.901Z,95838.50
2022-08-09T21:25:01.360Z,95846.72
2022-08-09T21:27:51.815Z,95847.25
2022-08-09T21:30:40.747Z,95847.81
2022-08-09T21:33:27.432Z,95845.09
2022-08-09T21:36:28.097Z,95849.69
2022-08-09T21:39:22.120Z,95853.56
2022-08-09T21:42:14.580Z,95826.75
2022-08-09T21:45:00.725Z,95842.38
2022-08-09T21:47:51.040Z,95831.16
2022-08-09T21:50:38.865Z,95837.78
2022-08-09T21:53:40.721Z,95842.69
2022-08-09T21:56:43.199Z,95846.25
2022-08-09T21:59:42.760Z,95834.78
2022-08-09T22:02:36.078Z,95834.22
2022-08-09T22:05:23.716Z,95834.75
2022-08-09T22:08:24.439Z,95844.34
2022-08-09T22:12:06.365Z,95807.06
2022-08-09T22:14:16.727Z,95824.34
2022-08-09T22:17:05.679Z,95832.28
2022-08-09T22:19:59.321Z,95822.44
2022-08-09T22:22:47.290Z,95830.66
2022-08-09T22:26:07.647Z,95835.00
2022-08-09T22:28:47.358Z,95825.91
2022-08-09T22:31:50.474Z,95830.66
2022-08-09T22:34:43.223Z,95813.09
2022-08-09T22:37:40.404Z,95825.19
2022-08-09T22:40:28.413Z,95827.34
2022-08-09T22:43:17.047Z,95828.16
2022-08-09T22:48:18.806Z,95822.66
2022-08-09T22:49:27.191Z,95820.47
2022-08-09T22:52:17.663Z,95830.66
2022-08-09T22:55:07.301Z,95820.72
2022-08-09T22:57:59.894Z,95833.63
2022-08-09T23:00:46.740Z,95834.44
2022-08-09T23:04:04.134Z,95842.38
2022-08-09T23:06:59.741Z,95834.19
2022-08-09T23:09:46.818Z,95828.97
2022-08-09T23:12:32.910Z,95830.88
2022-08-09T23:15:19.163Z,95841.56
2022-08-09T23:18:05.358Z,95839.88
2022-08-09T23:20:51.199Z,95824.06
2022-08-09T23:23:37.199Z,95828.69
2022-08-09T23:26:23.320Z,95834.16
2022-08-09T23:29:13.446Z,95819.94
2022-08-09T23:31:59.695Z,95818.00
2022-08-09T23:34:45.823Z,95805.19
2022-08-09T23:37:31.908Z,95818.84
2022-08-09T23:40:18.300Z,95801.06
2022-08-09T23:43:04.173Z,95819.69
2022-08-09T23:45:49.983Z,95820.19
2022-08-09T23:48:36.022Z,95811.19
2022-08-09T23:51:22.073Z,95814.19
2022-08-09T23:54:08.524Z,95811.69
2022-08-09T23:56:56.252Z,95807.88
